Main page
METAR-TAF:

METAR-TAF

Airports :

Svalbard Airport. Longyear

Longyearbyen, Norway

latitude: 78-15N, longitude: 015-28E, elevation: 2 m

Current weather observation

The report was made 36 minutes ago, at 16:20 UTC
Wind 22 kt from the Southeast
Temperature -6°C
Humidity 62%
Pressure 1021 hPa
Visibility 10 km or more
Few clouds at a height of 3000 ft
Scattered clouds at a height of 6800 ft

METAR: ENSB 251620Z 13022KT 9999 FEW030 SCT068 M06/M12 Q1021 RMK WIND 1400FT 13020KT

Time: 18:56 (16:56 UTC)

Forecast

Forecast valid from 25 at 12 UTC to 26 at 12 UTC
Wind 15 kt from the East/Southeast
Visibility 10 km or more
Few clouds at a height of 2500 ft
Scattered clouds at a height of 3500 ft

TAF: ENSB 2512/2612 12015KT 9999 FEW025 SCT035

Weather observations and forecasts of more than 4000 airports (METAR and TAF reports).

The available stations are represented by yellow and red dots on the map.

Hover mouse over dot to see the name of the station.

Then click to see weather observations and forecasts.

To change the map : click on the green buttons with a black cross to zoom in, on the green button with a dash to zoom out, or on the green arrows for adjacent maps.


METAR-TAF: